createdAt,value
2018-08-23T00:00:28.956Z,1078.93
2018-08-23T00:01:28.968Z,1079.5
2018-08-23T00:02:29.006Z,1080.36
2018-08-23T00:03:29.023Z,1080.98
2018-08-23T00:04:29.012Z,1081.63
2018-08-23T00:05:28.988Z,1082.07
2018-08-23T00:06:28.873Z,1082.48
2018-08-23T00:07:29.000Z,1082.93
2018-08-23T00:08:29.019Z,1083.44
2018-08-23T00:09:28.993Z,1083.78
2018-08-23T00:10:29.001Z,1084.52
2018-08-23T00:11:29.020Z,1084.84
2018-08-23T00:12:29.004Z,1085.06
2018-08-23T00:13:29.032Z,1085.49
2018-08-23T00:14:29.049Z,1085.42
2018-08-23T00:15:29.016Z,1085.47
2018-08-23T00:16:29.063Z,1085.48
2018-08-23T00:17:28.992Z,1085.44
2018-08-23T00:18:29.031Z,1085.35
2018-08-23T00:19:29.042Z,1085.45
2018-08-23T00:20:29.040Z,1085.18
2018-08-23T00:21:29.014Z,1085.2
2018-08-23T00:22:29.018Z,1085.23
2018-08-23T00:23:29.001Z,1085.07
2018-08-23T00:24:29.028Z,1084.89
2018-08-23T00:25:29.013Z,1084.88
2018-08-23T00:26:29.591Z,1085
2018-08-23T00:27:29.042Z,1085.16
2018-08-23T00:28:29.037Z,1085.42
2018-08-23T00:29:29.007Z,1085.68
2018-08-23T00:30:29.049Z,1085.9
2018-08-23T00:31:29.042Z,1086.29
2018-08-23T00:32:29.049Z,1086.57
2018-08-23T00:33:29.068Z,1087.04
2018-08-23T00:34:29.070Z,1087.26
2018-08-23T00:35:29.035Z,1087.62
2018-08-23T00:36:29.058Z,1088.02
2018-08-23T00:37:29.048Z,1088.45
2018-08-23T00:38:29.039Z,1089
2018-08-23T00:39:29.041Z,1089.1
2018-08-23T00:40:29.112Z,1089.67
2018-08-23T00:41:29.053Z,1090.13
2018-08-23T00:42:29.055Z,1090.49
2018-08-23T00:43:29.055Z,1091.02
2018-08-23T00:44:29.092Z,1091.42
2018-08-23T00:45:29.056Z,1091.79
2018-08-23T00:46:29.111Z,1092.2
2018-08-23T00:47:29.078Z,1092.85
2018-08-23T00:48:29.045Z,1093.41
2018-08-23T00:49:29.059Z,1093.88
2018-08-23T00:50:29.087Z,1094.44
2018-08-23T00:51:29.102Z,1094.99
2018-08-23T00:52:29.073Z,1095.63
2018-08-23T00:53:29.082Z,1095.78
2018-08-23T00:54:29.097Z,1095.88
2018-08-23T00:55:29.108Z,1095.97
2018-08-23T00:56:29.072Z,1096.08
2018-08-23T00:57:29.074Z,1096.05
2018-08-23T00:58:29.088Z,1096.25
2018-08-23T00:59:29.128Z,1096.67
2018-08-23T01:00:29.110Z,1097.07
2018-08-23T01:01:29.114Z,1097.43
2018-08-23T01:02:29.108Z,1098.06
2018-08-23T01:03:29.111Z,1098.5
2018-08-23T01:04:29.090Z,1098.94
2018-08-23T01:05:29.103Z,1099.42
2018-08-23T01:06:29.081Z,1099.75
2018-08-23T01:07:29.104Z,1100.03
2018-08-23T01:08:29.123Z,1100.48
2018-08-23T01:09:29.111Z,1100.86
2018-08-23T01:10:29.158Z,1101.28
2018-08-23T01:11:29.106Z,1101.66
2018-08-23T01:12:29.101Z,1101.95
2018-08-23T01:13:29.119Z,1102.46
2018-08-23T01:14:29.095Z,1102.87
2018-08-23T01:15:29.104Z,1103.1
2018-08-23T01:16:29.116Z,1103.3
2018-08-23T01:17:29.146Z,1103.6
2018-08-23T01:18:29.142Z,1103.85
2018-08-23T01:19:29.115Z,1104.06
2018-08-23T01:20:29.173Z,1104.14
2018-08-23T01:21:29.148Z,1104.15
2018-08-23T01:22:29.114Z,1104.29
2018-08-23T01:23:29.139Z,1104.38
2018-08-23T01:24:29.155Z,1104.52
2018-08-23T01:25:29.136Z,1104.68
2018-08-23T01:26:29.138Z,1104.63
2018-08-23T01:27:29.104Z,1104.71
2018-08-23T01:28:29.137Z,1104.88
2018-08-23T01:29:29.146Z,1105.15
2018-08-23T01:30:29.149Z,1105.18
2018-08-23T01:31:29.181Z,1105.32
2018-08-23T01:32:29.159Z,1105.49
2018-08-23T01:33:29.147Z,1105.74
2018-08-23T01:34:29.138Z,1105.99
2018-08-23T01:35:29.140Z,1106.07
2018-08-23T01:36:29.175Z,1106.12
2018-08-23T01:37:29.141Z,1106.39
2018-08-23T01:38:29.131Z,1106.59
2018-08-23T01:39:29.157Z,1106.84
2018-08-23T01:40:29.162Z,1107.15
2018-08-23T01:41:29.159Z,1107.29
2018-08-23T01:42:29.143Z,1107.57
2018-08-23T01:43:29.172Z,1107.79
2018-08-23T01:44:29.145Z,1108.02
2018-08-23T01:45:29.143Z,1108.39
2018-08-23T01:46:29.162Z,1108.65
2018-08-23T01:47:29.155Z,1108.83
2018-08-23T01:48:29.146Z,1109.2
2018-08-23T01:49:29.166Z,1109.34
2018-08-23T01:50:29.183Z,1109.44
2018-08-23T01:51:29.190Z,1109.75
2018-08-23T01:52:29.181Z,1109.98
2018-08-23T01:53:29.203Z,1110.4
2018-08-23T01:54:29.165Z,1110.66
2018-08-23T01:55:29.199Z,1111.14
2018-08-23T01:56:29.259Z,1111.38
2018-08-23T01:57:29.196Z,1111.69
2018-08-23T01:58:29.162Z,1111.82
2018-08-23T01:59:29.218Z,1112.11
2018-08-23T02:00:29.182Z,1112.27
2018-08-23T02:01:29.193Z,1112.57
2018-08-23T02:02:29.188Z,1112.78
2018-08-23T02:03:29.205Z,1113.29
2018-08-23T02:04:29.180Z,1113.72
2018-08-23T02:05:29.184Z,1114.19
2018-08-23T02:06:29.182Z,1114.55
2018-08-23T02:07:29.227Z,1114.88
2018-08-23T02:08:29.189Z,1115.33
2018-08-23T02:09:29.244Z,1115.63
2018-08-23T02:10:29.182Z,1115.92
2018-08-23T02:11:29.210Z,1116.22
2018-08-23T02:12:29.233Z,1116.42
2018-08-23T02:13:29.228Z,1116.67
2018-08-23T02:14:29.214Z,1116.88
2018-08-23T02:15:29.207Z,1117.05
2018-08-23T02:16:29.248Z,1117.24
2018-08-23T02:17:29.211Z,1117.46
2018-08-23T02:18:29.223Z,1117.6
2018-08-23T02:19:29.207Z,1117.81
2018-08-23T02:20:29.206Z,1117.75
2018-08-23T02:21:29.245Z,1117.98
2018-08-23T02:22:29.214Z,1118.1
2018-08-23T02:23:29.231Z,1118.19
2018-08-23T02:24:29.238Z,1118.2
2018-08-23T02:25:29.246Z,1118.32
2018-08-23T02:26:29.257Z,1118.35
2018-08-23T02:27:29.222Z,1118.42
2018-08-23T02:28:29.220Z,1118.43
2018-08-23T02:29:29.276Z,1118.59
2018-08-23T02:30:29.282Z,1118.57
2018-08-23T02:31:29.244Z,1118.64
2018-08-23T02:32:29.260Z,1118.83
2018-08-23T02:33:29.261Z,1118.84
2018-08-23T02:34:29.243Z,1118.94
2018-08-23T02:35:29.247Z,1119.1
2018-08-23T02:39:58.861Z,1119.28
2018-08-23T02:40:58.843Z,1119.31
2018-08-23T02:41:58.839Z,1119.39
2018-08-23T02:42:58.845Z,1119.42
2018-08-23T02:43:58.854Z,1119.44
2018-08-23T02:44:58.860Z,1119.55
2018-08-23T02:45:58.858Z,1119.48
2018-08-23T02:46:58.879Z,1119.49
2018-08-23T02:47:58.868Z,1119.41
2018-08-23T02:48:58.881Z,1119.47
2018-08-23T02:49:58.854Z,1119.36
2018-08-23T02:50:58.868Z,1119.42
2018-08-23T02:51:58.871Z,1119.39
2018-08-23T02:52:58.869Z,1119.36
2018-08-23T02:53:58.872Z,1119.27
2018-08-23T02:54:58.879Z,1119.19
2018-08-23T02:55:58.862Z,1119.1
2018-08-23T02:56:58.878Z,1119.06
2018-08-23T02:57:58.900Z,1119.07
2018-08-23T02:58:58.873Z,1119.09
2018-08-23T02:59:58.884Z,1119.13
2018-08-23T03:00:58.918Z,1119.25
2018-08-23T03:01:58.900Z,1119.45
2018-08-23T03:02:58.893Z,1119.59
2018-08-23T03:03:58.887Z,1119.77
2018-08-23T03:04:58.887Z,1119.91
2018-08-23T03:05:58.890Z,1119.98
2018-08-23T03:06:58.925Z,1120.02
2018-08-23T03:07:58.912Z,1120.1
2018-08-23T03:08:58.910Z,1120.09
2018-08-23T03:09:58.878Z,1120.22
2018-08-23T03:10:58.914Z,1120.35
2018-08-23T03:11:58.953Z,1120.41
2018-08-23T03:12:58.907Z,1120.48
2018-08-23T03:13:58.916Z,1120.57
2018-08-23T03:14:58.919Z,1120.73
2018-08-23T03:15:58.924Z,1120.8
2018-08-23T03:16:58.900Z,1120.88
2018-08-23T03:17:58.918Z,1120.97
2018-08-23T03:18:58.897Z,1121.21
2018-08-23T03:19:58.915Z,1121.32
2018-08-23T03:20:58.912Z,1121.34
2018-08-23T03:21:58.913Z,1121.43
2018-08-23T03:22:58.908Z,1121.58
2018-08-23T03:23:58.933Z,1121.54
2018-08-23T03:24:58.907Z,1121.6
2018-08-23T03:25:58.915Z,1121.65
2018-08-23T03:26:58.911Z,1121.72
2018-08-23T03:27:58.939Z,1121.73
2018-08-23T03:28:58.969Z,1121.87
2018-08-23T03:29:58.920Z,1121.86
2018-08-23T03:30:58.917Z,1121.85
2018-08-23T03:31:58.925Z,1121.94
2018-08-23T03:32:58.923Z,1121.86
2018-08-23T03:33:58.930Z,1121.91
2018-08-23T03:34:58.935Z,1121.89
2018-08-23T03:35:58.925Z,1121.94
2018-08-23T03:36:58.942Z,1121.99
2018-08-23T03:37:58.921Z,1122.04
2018-08-23T03:38:58.937Z,1122.23
2018-08-23T03:39:58.926Z,1122.35
2018-08-23T03:40:58.968Z,1122.55
2018-08-23T03:41:58.960Z,1122.73
2018-08-23T03:42:58.958Z,1122.87
2018-08-23T03:43:58.931Z,1123.04
2018-08-23T03:44:58.935Z,1123.2
2018-08-23T03:45:58.945Z,1123.28
2018-08-23T03:46:58.953Z,1123.33
2018-08-23T03:47:58.959Z,1123.5
2018-08-23T03:48:58.971Z,1123.41
2018-08-23T03:49:58.969Z,1123.42
2018-08-23T03:50:58.941Z,1123.46
2018-08-23T03:51:58.953Z,1123.39
2018-08-23T03:52:58.943Z,1123.38
2018-08-23T03:53:58.984Z,1123.35
2018-08-23T03:54:58.967Z,1123.34
2018-08-23T03:55:58.969Z,1123.32
2018-08-23T03:56:58.950Z,1123.25
2018-08-23T03:57:58.956Z,1123.2
2018-08-23T03:58:58.969Z,1123.26
2018-08-23T03:59:58.968Z,1123.34
2018-08-23T04:00:58.970Z,1123.41
2018-08-23T04:01:58.986Z,1123.47
2018-08-23T04:02:58.977Z,1123.51
2018-08-23T04:03:58.993Z,1123.5
2018-08-23T04:04:59.004Z,1123.54
2018-08-23T04:05:58.977Z,1123.46
2018-08-23T04:06:58.990Z,1123.51
2018-08-23T04:07:58.976Z,1123.47
2018-08-23T04:08:58.977Z,1123.43
2018-08-23T04:09:58.988Z,1123.46
2018-08-23T04:10:59.011Z,1123.51
2018-08-23T04:11:59.009Z,1123.48
2018-08-23T04:12:59.027Z,1123.54
2018-08-23T04:13:59.060Z,1123.5
2018-08-23T04:14:59.031Z,1123.62
2018-08-23T04:15:59.006Z,1123.73
2018-08-23T04:16:58.995Z,1123.92
2018-08-23T04:17:59.003Z,1123.97
2018-08-23T04:18:59.002Z,1124.15
2018-08-23T04:19:59.002Z,1124.28
2018-08-23T04:20:58.998Z,1124.32
2018-08-23T04:21:58.996Z,1124.39
2018-08-23T04:22:59.072Z,1124.46
2018-08-23T04:23:59.015Z,1124.41
2018-08-23T04:24:59.012Z,1124.43
2018-08-23T04:25:59.001Z,1124.35
2018-08-23T04:26:59.024Z,1124.43
2018-08-23T04:27:59.022Z,1124.56
2018-08-23T04:28:59.024Z,1124.65
2018-08-23T04:29:59.023Z,1124.72
2018-08-23T04:30:59.030Z,1124.8
2018-08-23T04:31:59.024Z,1124.89
2018-08-23T04:32:59.035Z,1124.93
2018-08-23T04:33:59.039Z,1125.05
2018-08-23T04:34:59.047Z,1125.03
2018-08-23T04:35:59.018Z,1125
2018-08-23T04:36:59.026Z,1125.02
2018-08-23T04:37:59.028Z,1124.98
2018-08-23T04:38:59.047Z,1124.87
2018-08-23T04:39:59.045Z,1124.76
2018-08-23T04:40:59.047Z,1124.78
2018-08-23T04:41:59.027Z,1124.78
2018-08-23T04:43:00.330Z,1124.78
2018-08-23T04:43:59.823Z,1124.6
2018-08-23T04:44:59.041Z,1124.51
2018-08-23T04:45:59.064Z,1124.46
2018-08-23T04:46:59.070Z,1124.35
2018-08-23T04:47:59.071Z,1124.27
2018-08-23T04:48:59.066Z,1124.24
2018-08-23T04:49:59.038Z,1124.21
2018-08-23T04:50:59.057Z,1124.19
2018-08-23T04:51:59.056Z,1124.23
2018-08-23T04:52:59.063Z,1124.11
2018-08-23T04:53:59.064Z,1124.05
2018-08-23T04:54:59.080Z,1124.05
2018-08-23T04:55:59.118Z,1123.92
2018-08-23T04:56:59.064Z,1123.92
2018-08-23T04:57:59.077Z,1123.88
2018-08-23T04:58:59.097Z,1123.77
2018-08-23T04:59:59.085Z,1123.65
2018-08-23T05:00:59.075Z,1123.51
2018-08-23T05:01:59.062Z,1123.33
2018-08-23T05:02:59.075Z,1123.17
2018-08-23T05:03:59.122Z,1122.97
2018-08-23T05:04:59.083Z,1122.79
2018-08-23T05:05:59.094Z,1122.55
2018-08-23T05:06:59.080Z,1122.22
2018-08-23T05:07:59.086Z,1122.03
2018-08-23T05:08:59.105Z,1121.85
2018-08-23T05:09:59.081Z,1121.61
2018-08-23T05:10:59.075Z,1121.41
2018-08-23T05:11:59.109Z,1121.12
2018-08-23T05:12:59.128Z,1121.02
2018-08-23T05:13:59.143Z,1120.8
2018-08-23T05:14:59.134Z,1120.66
2018-08-23T05:15:59.108Z,1120.36
2018-08-23T05:16:59.111Z,1120.26
2018-08-23T05:17:59.106Z,1120.19
2018-08-23T05:18:59.181Z,1120.02
2018-08-23T05:19:59.113Z,1120.05
2018-08-23T05:20:59.414Z,1120.03
2018-08-23T05:21:59.118Z,1120
2018-08-23T05:22:59.136Z,1120.11
2018-08-23T05:23:59.129Z,1120.21
2018-08-23T05:24:59.112Z,1120.32
2018-08-23T05:25:59.100Z,1120.37
2018-08-23T05:26:59.116Z,1120.42
2018-08-23T05:27:59.135Z,1120.44
2018-08-23T05:28:59.127Z,1120.34
2018-08-23T05:29:59.134Z,1120.27
2018-08-23T05:30:59.131Z,1120.15
2018-08-23T05:31:59.119Z,1120.03
2018-08-23T05:36:28.596Z,1119.37
2018-08-23T05:37:28.595Z,1119.22
2018-08-23T05:38:28.580Z,1118.87
2018-08-23T05:39:28.614Z,1118.61
2018-08-23T05:40:28.594Z,1118.43
2018-08-23T05:41:28.609Z,1118.07
2018-08-23T05:42:28.595Z,1117.88
2018-08-23T05:43:28.603Z,1117.76
2018-08-23T05:44:28.590Z,1117.55
2018-08-23T05:45:28.593Z,1117.43
2018-08-23T05:46:28.593Z,1117.24
2018-08-23T05:47:28.609Z,1117.13
2018-08-23T05:48:28.600Z,1116.86
2018-08-23T05:49:28.611Z,1116.61
2018-08-23T05:50:28.622Z,1116.19
2018-08-23T05:51:28.595Z,1115.89
2018-08-23T05:52:28.623Z,1115.45
2018-08-23T05:53:28.609Z,1112.9
2018-08-23T05:54:28.644Z,1111.06
2018-08-23T05:55:28.625Z,1111.76
2018-08-23T05:56:28.654Z,1111.8
2018-08-23T05:57:28.641Z,1111.48
2018-08-23T05:58:28.655Z,1110.2
2018-08-23T05:59:28.645Z,1108.95
2018-08-23T06:00:28.642Z,1108.79
2018-08-23T06:01:28.634Z,1108.21
2018-08-23T06:02:28.641Z,1099.85
2018-08-23T06:03:28.626Z,1094.53
2018-08-23T06:04:28.643Z,1093.53
2018-08-23T06:05:28.662Z,1091.79
2018-08-23T06:06:28.633Z,1089.97
2018-08-23T06:07:28.658Z,1085.89
2018-08-23T06:08:39.633Z,1079.4
2018-08-23T06:09:28.648Z,1073.6
2018-08-23T06:10:28.650Z,1075.13
2018-08-23T06:11:28.651Z,1078.92
2018-08-23T06:12:28.656Z,1079.68
2018-08-23T06:13:28.698Z,1075.98
2018-08-23T06:14:28.793Z,1076.35
2018-08-23T06:15:28.686Z,1077.79
2018-08-23T06:16:28.659Z,1078.31
2018-08-23T06:17:28.661Z,1078.82
2018-08-23T06:18:28.660Z,1079.38
2018-08-23T06:19:28.700Z,1079.8
2018-08-23T06:20:28.679Z,1080.1
2018-08-23T06:21:28.696Z,1080.16
2018-08-23T06:22:28.684Z,1080.26
2018-08-23T06:23:28.676Z,1080.21
2018-08-23T06:24:28.663Z,1080.14
2018-08-23T06:25:28.682Z,1077.81
2018-08-23T06:26:28.680Z,1075.23
2018-08-23T06:27:28.765Z,1073.68
2018-08-23T06:28:28.685Z,1073.88
2018-08-23T06:29:28.702Z,1073.45
2018-08-23T06:30:28.698Z,1072.93
2018-08-23T06:31:28.679Z,1067.26
2018-08-23T06:32:28.692Z,1059.95
2018-08-23T06:33:28.870Z,1053.67
2018-08-23T06:34:28.695Z,1046.93
2018-08-23T06:35:28.711Z,1039.68
2018-08-23T06:36:28.714Z,1032.36
2018-08-23T06:37:28.691Z,1025.18
2018-08-23T06:38:28.680Z,1018
2018-08-23T06:39:28.734Z,1010.81
2018-08-23T06:40:28.707Z,1004.53
2018-08-23T06:41:28.708Z,997.48
2018-08-23T06:42:28.708Z,989.77
2018-08-23T06:43:28.706Z,981.85
2018-08-23T06:44:28.728Z,974.17
2018-08-23T06:45:28.727Z,966.76
2018-08-23T06:46:28.703Z,960.06
2018-08-23T06:47:28.706Z,953.06
2018-08-23T06:48:28.716Z,946.47
2018-08-23T06:49:28.720Z,941.82
2018-08-23T06:50:28.709Z,945.59
2018-08-23T06:51:28.717Z,947.68
2018-08-23T06:52:28.710Z,951.25
2018-08-23T06:53:28.745Z,955.93
2018-08-23T06:54:28.773Z,960.83
2018-08-23T06:55:28.757Z,965.66
2018-08-23T06:56:28.784Z,971.43
2018-08-23T06:57:28.749Z,976.77
2018-08-23T06:58:28.730Z,982.57
2018-08-23T06:59:28.721Z,987.26
2018-08-23T07:00:28.738Z,991.59
2018-08-23T07:01:28.752Z,995.71
2018-08-23T07:02:28.769Z,999.14
2018-08-23T07:03:28.739Z,1001.97
2018-08-23T07:04:28.739Z,999.43
2018-08-23T07:05:28.817Z,992.77
2018-08-23T07:06:28.730Z,986.7
2018-08-23T07:07:28.744Z,979.86
2018-08-23T07:08:28.763Z,974.9
2018-08-23T07:09:28.763Z,972.65
2018-08-23T07:10:28.761Z,973.57
2018-08-23T07:11:28.628Z,974.79
2018-08-23T07:12:28.769Z,973.92
2018-08-23T07:13:28.886Z,969.8
2018-08-23T07:14:28.753Z,962.39
2018-08-23T07:15:28.811Z,955.33
2018-08-23T07:16:28.760Z,947.26
2018-08-23T07:17:28.779Z,939.15
2018-08-23T07:18:28.833Z,934.38
2018-08-23T07:19:28.756Z,933.71
2018-08-23T07:20:28.791Z,932.2
2018-08-23T07:21:28.778Z,929.53
2018-08-23T07:22:28.768Z,932.49
2018-08-23T07:23:28.770Z,934.59
2018-08-23T07:32:19.173Z,872.87
2018-08-23T07:33:19.149Z,865.24
2018-08-23T07:34:19.154Z,856.71
2018-08-23T07:35:19.153Z,848.6
2018-08-23T07:36:19.171Z,840.79
2018-08-23T07:37:19.187Z,833.28
2018-08-23T07:38:19.192Z,827.36
2018-08-23T07:39:19.187Z,821.96
2018-08-23T07:40:19.155Z,817.08
2018-08-23T07:42:38.463Z,806.92
2018-08-23T07:43:38.437Z,802.25
2018-08-23T07:44:38.959Z,797.22
2018-08-23T07:45:38.448Z,792.32
2018-08-23T07:46:38.444Z,786.04
2018-08-23T07:47:38.456Z,780
2018-08-23T07:48:38.540Z,774.37
2018-08-23T07:53:09.364Z,757.97
2018-08-23T07:54:09.239Z,758.12
2018-08-23T07:55:09.260Z,757.03
2018-08-23T07:56:09.442Z,755.93
2018-08-23T07:57:09.242Z,753.25
2018-08-23T07:58:09.251Z,750.6
2018-08-23T07:59:09.246Z,747.23
2018-08-23T08:00:09.251Z,744.84
2018-08-23T08:01:09.253Z,740.07
2018-08-23T08:02:09.507Z,735.33
2018-08-23T08:03:09.265Z,730.49
2018-08-23T08:04:09.275Z,725.62
2018-08-23T08:05:09.261Z,722.18
2018-08-23T08:06:09.594Z,718.92
2018-08-23T08:07:09.258Z,716.27
2018-08-23T08:08:09.274Z,714.18
2018-08-23T08:09:09.277Z,712.7
2018-08-23T08:10:09.315Z,712.54
2018-08-23T08:11:09.260Z,713.04
2018-08-23T08:12:09.261Z,713.72
2018-08-23T08:13:09.271Z,713.19
2018-08-23T08:14:09.280Z,714.52
2018-08-23T08:15:09.570Z,717.81
2018-08-23T08:16:09.288Z,721.27
2018-08-23T08:17:09.291Z,724.25
2018-08-23T08:18:09.309Z,726.69
2018-08-23T08:19:09.280Z,728.83
2018-08-23T08:20:09.286Z,730.29
2018-08-23T08:21:09.311Z,732.58
2018-08-23T08:22:09.299Z,734.98
2018-08-23T08:23:09.311Z,736.16
2018-08-23T08:24:09.311Z,737.91
2018-08-23T08:25:09.311Z,739.86
2018-08-23T08:26:09.321Z,742.38
2018-08-23T08:27:09.335Z,745.65
2018-08-23T08:28:09.302Z,750.98
2018-08-23T08:29:09.295Z,755.7
2018-08-23T08:30:09.339Z,761.81
2018-08-23T08:31:09.333Z,768.19
2018-08-23T08:32:09.299Z,774.16
2018-08-23T08:33:09.375Z,778.63
2018-08-23T08:34:09.326Z,783.04
2018-08-23T08:35:09.338Z,787.56
2018-08-23T08:36:09.315Z,791.58
2018-08-23T08:37:09.336Z,794.15
2018-08-23T08:38:09.320Z,796.52
2018-08-23T08:39:09.325Z,797.71
2018-08-23T08:40:09.343Z,799.01
2018-08-23T08:41:09.321Z,799.15
2018-08-23T08:42:09.350Z,798.39
2018-08-23T08:43:09.340Z,798.65
2018-08-23T08:44:09.365Z,799.96
2018-08-23T08:45:09.335Z,801.13
2018-08-23T08:46:09.362Z,801.86
2018-08-23T08:47:09.344Z,801.95
2018-08-23T08:48:09.321Z,801.85
2018-08-23T08:49:09.330Z,802.59
2018-08-23T08:50:09.348Z,803.19
2018-08-23T08:51:09.335Z,802.86
2018-08-23T08:52:09.349Z,801.27
2018-08-23T08:53:09.387Z,798.91
2018-08-23T08:54:09.362Z,797.71
2018-08-23T08:55:09.349Z,797.57
2018-08-23T08:56:09.372Z,797.54
2018-08-23T08:57:09.399Z,797.38
2018-08-23T08:58:09.359Z,796.63
2018-08-23T08:59:09.362Z,796.64
2018-08-23T09:00:09.381Z,797.22
2018-08-23T09:01:09.375Z,798.44
2018-08-23T09:02:09.383Z,799.65
2018-08-23T09:03:09.422Z,801.71
2018-08-23T09:04:09.373Z,804.81
2018-08-23T09:10:49.240Z,823.8
2018-08-23T09:11:49.208Z,825.23
2018-08-23T09:12:49.220Z,826.78
2018-08-23T09:13:49.220Z,827.5
2018-08-23T09:14:49.228Z,829.05
2018-08-23T09:15:49.242Z,830.03
2018-08-23T09:16:49.248Z,831.98
2018-08-23T09:17:49.242Z,833.1
2018-08-23T09:18:49.331Z,834.08
2018-08-23T09:19:49.225Z,835.77
2018-08-23T09:20:49.266Z,837.73
2018-08-23T09:21:49.240Z,840.23
2018-08-23T09:22:49.240Z,842.31
2018-08-23T09:23:49.255Z,843.99
2018-08-23T09:24:49.271Z,845.59
2018-08-23T09:25:49.230Z,846.55
2018-08-23T09:26:49.233Z,847.48
2018-08-23T09:27:49.240Z,848.74
2018-08-23T09:28:49.250Z,849.4
2018-08-23T09:29:49.264Z,850.22
2018-08-23T09:30:49.263Z,850.91
2018-08-23T09:31:49.268Z,851.3
2018-08-23T09:32:49.250Z,851.56
2018-08-23T09:39:30.985Z,850.71
2018-08-23T09:40:30.966Z,850.7
2018-08-23T09:41:30.960Z,850.59
2018-08-23T09:42:30.953Z,850.68
2018-08-23T09:43:31.016Z,849.9
2018-08-23T09:44:30.952Z,850.59
2018-08-23T09:45:30.960Z,850.03
2018-08-23T09:46:30.964Z,849.72
2018-08-23T09:47:30.977Z,848.61
2018-08-23T09:48:30.981Z,847.41
2018-08-23T09:49:30.995Z,845.77
2018-08-23T09:50:30.992Z,844.53
2018-08-23T09:51:30.963Z,842.02
2018-08-23T09:52:30.972Z,840.47
2018-08-23T09:53:30.981Z,837.99
2018-08-23T09:54:30.974Z,835.63
2018-08-23T09:55:30.996Z,832.57
2018-08-23T09:56:30.995Z,829.47
2018-08-23T09:57:30.996Z,826.81
2018-08-23T09:58:31.006Z,822.53
2018-08-23T09:59:30.981Z,819.97
2018-08-23T10:00:30.992Z,818.41
2018-08-23T10:01:30.999Z,817.42
2018-08-23T10:02:31.033Z,816.26
2018-08-23T10:03:30.985Z,815.38
2018-08-23T10:04:31.031Z,814.13
2018-08-23T10:05:30.999Z,812.98
2018-08-23T10:06:31.001Z,812.27
2018-08-23T10:07:31.000Z,812.79
2018-08-23T10:08:31.006Z,812.7
2018-08-23T10:09:31.015Z,811.52
2018-08-23T10:10:31.010Z,811.38
2018-08-23T10:11:31.062Z,810.83
2018-08-23T10:12:31.003Z,811.56
2018-08-23T10:13:31.014Z,812.55
2018-08-23T10:14:31.018Z,814.04
2018-08-23T10:15:31.019Z,815.02
2018-08-23T10:16:31.030Z,817.18
2018-08-23T10:17:31.019Z,818.04
2018-08-23T10:22:00.432Z,829.06
2018-08-23T10:23:00.387Z,830.87
2018-08-23T10:24:00.420Z,832.98
2018-08-23T10:25:00.422Z,835.66
2018-08-23T10:26:00.408Z,838.02
2018-08-23T10:27:00.448Z,840.25
2018-08-23T10:28:00.422Z,842.09
2018-08-23T10:29:00.423Z,844.14
2018-08-23T10:30:00.425Z,847
2018-08-23T10:31:00.410Z,849.28
2018-08-23T10:32:00.447Z,851.14
2018-08-23T10:33:00.477Z,853.81
2018-08-23T10:34:00.408Z,855.95
2018-08-23T10:35:00.415Z,858.42
2018-08-23T10:36:00.425Z,860.75
2018-08-23T10:37:00.440Z,863.29
2018-08-23T10:38:00.424Z,865.71
2018-08-23T10:39:00.444Z,867.95
2018-08-23T10:40:00.467Z,870.61
2018-08-23T10:41:00.443Z,873.51
2018-08-23T10:42:00.431Z,876.33
2018-08-23T10:43:00.438Z,880.43
2018-08-23T10:44:00.453Z,883.18
2018-08-23T10:45:00.446Z,886.46
2018-08-23T10:46:00.461Z,888.42
2018-08-23T10:47:00.428Z,891.35
2018-08-23T10:48:00.436Z,893.61
2018-08-23T10:49:00.450Z,896.35
2018-08-23T10:50:00.447Z,897.47
2018-08-23T10:51:00.469Z,899.36
2018-08-23T10:52:00.465Z,901.1
2018-08-23T10:53:00.476Z,902.21
2018-08-23T10:54:00.452Z,903.23
2018-08-23T10:55:00.590Z,904.57
2018-08-23T10:56:00.461Z,906.03
2018-08-23T10:57:00.476Z,907.44
2018-08-23T10:58:00.483Z,909.19
2018-08-23T10:59:00.520Z,910.9
2018-08-23T11:00:00.467Z,912.95
2018-08-23T11:01:00.468Z,914.32
2018-08-23T11:02:00.471Z,915.96
2018-08-23T11:03:00.468Z,918.43
2018-08-23T11:04:00.481Z,921
2018-08-23T11:05:00.475Z,923.48
2018-08-23T11:06:00.470Z,925.9
2018-08-23T11:07:00.487Z,928.37
2018-08-23T11:08:00.475Z,930.48
2018-08-23T11:09:00.490Z,932.79
2018-08-23T11:10:00.482Z,934.89
2018-08-23T11:11:00.481Z,936.35
2018-08-23T11:12:00.491Z,938.74
2018-08-23T11:13:00.492Z,940.51
2018-08-23T11:14:00.518Z,943.06
2018-08-23T11:15:00.515Z,944.72
2018-08-23T11:16:00.526Z,947.43
2018-08-23T11:17:00.691Z,949.9
2018-08-23T11:18:00.506Z,952.47
2018-08-23T11:19:00.544Z,954.62
2018-08-23T11:20:00.513Z,957.27
2018-08-23T11:21:00.517Z,958.95
2018-08-23T11:23:20.046Z,961.91
2018-08-23T11:24:20.023Z,962.49
2018-08-23T11:25:20.024Z,963.33
2018-08-23T11:26:20.031Z,963.87
2018-08-23T11:27:20.041Z,964.67
2018-08-23T11:28:20.031Z,964.74
2018-08-23T11:29:20.075Z,965.39
2018-08-23T11:30:20.030Z,965.28
2018-08-23T11:31:20.067Z,965.65
2018-08-23T11:32:20.051Z,965.58
2018-08-23T11:33:20.054Z,965.55
2018-08-23T11:34:20.044Z,965.04
2018-08-23T11:35:20.041Z,964.86
2018-08-23T11:36:20.044Z,964.5
2018-08-23T11:37:20.042Z,964.19
2018-08-23T11:38:20.045Z,963.57
2018-08-23T11:39:20.090Z,963.22
2018-08-23T11:40:20.071Z,962.91
2018-08-23T11:41:20.073Z,962.28
2018-08-23T11:42:20.076Z,962.28
2018-08-23T11:43:20.354Z,962.58
2018-08-23T11:44:20.065Z,962.53
2018-08-23T11:45:20.063Z,962.91
2018-08-23T11:46:20.067Z,962.99
2018-08-23T11:47:20.076Z,963.54
2018-08-23T11:48:20.107Z,964.05
2018-08-23T11:49:20.090Z,964.89
2018-08-23T11:50:20.084Z,965.44
2018-08-23T11:51:20.066Z,966.05
2018-08-23T11:52:20.070Z,966.76
2018-08-23T11:53:20.152Z,966.87
2018-08-23T11:54:20.093Z,967.4
2018-08-23T11:55:20.096Z,967.73
2018-08-23T11:56:20.086Z,967.86
2018-08-23T11:57:20.085Z,968.49
2018-08-23T11:58:20.073Z,968.48
2018-08-23T11:59:20.073Z,968.71
2018-08-23T12:00:20.086Z,968.33
2018-08-23T12:01:20.086Z,968.05
2018-08-23T12:02:20.100Z,967.6
2018-08-23T12:03:20.110Z,966.88
2018-08-23T12:04:20.095Z,966.27
2018-08-23T12:05:20.088Z,964.9
2018-08-23T12:06:20.086Z,964.67
2018-08-23T12:10:49.617Z,962.27
2018-08-23T12:11:49.584Z,961.32
2018-08-23T12:12:49.618Z,961.35
2018-08-23T12:13:49.593Z,960.92
2018-08-23T12:20:30.951Z,953.91
2018-08-23T12:21:30.920Z,952.9
2018-08-23T12:22:30.914Z,951.17
2018-08-23T12:23:30.954Z,949.76
2018-08-23T12:24:30.928Z,947.86
2018-08-23T12:25:30.914Z,946.54
2018-08-23T12:26:30.966Z,944.33
2018-08-23T12:27:30.950Z,942.3
2018-08-23T12:28:30.923Z,939.6
2018-08-23T12:29:30.938Z,936.59
2018-08-23T12:30:30.959Z,934.4
2018-08-23T12:31:30.941Z,931.91
2018-08-23T12:32:30.953Z,929.34
2018-08-23T12:33:30.920Z,926.66
2018-08-23T12:34:30.926Z,923.2
2018-08-23T12:35:30.979Z,919.08
2018-08-23T12:36:30.947Z,915.95
2018-08-23T12:37:30.982Z,912.77
2018-08-23T12:38:30.951Z,907.99
2018-08-23T12:39:30.947Z,903.91
2018-08-23T12:40:30.959Z,899.57
2018-08-23T12:41:30.972Z,895.86
2018-08-23T12:42:30.947Z,890.63
2018-08-23T12:43:30.968Z,885.97
2018-08-23T12:44:30.964Z,879.36
2018-08-23T12:45:30.957Z,872.82
2018-08-23T12:46:31.019Z,865.92
2018-08-23T12:47:31.015Z,859.53
2018-08-23T12:48:30.974Z,852.68
2018-08-23T12:49:31.109Z,847.78
2018-08-23T12:50:30.962Z,843.19
2018-08-23T12:51:30.972Z,837.67
2018-08-23T12:52:30.980Z,830.64
2018-08-23T12:53:30.975Z,823.43
2018-08-23T12:54:30.983Z,816.85
2018-08-23T12:55:30.983Z,813.59
2018-08-23T12:56:31.035Z,812.59
2018-08-23T12:57:30.979Z,807.62
2018-08-23T12:58:30.994Z,802.13
2018-08-23T12:59:30.990Z,798.49
2018-08-23T13:00:30.999Z,791.67
2018-08-23T13:01:31.036Z,789.72
2018-08-23T13:02:31.120Z,783.85
2018-08-23T13:03:31.042Z,777.12